createdAt,value
2022-08-12T00:02:20.107Z,98719.88
2022-08-12T00:05:56.332Z,98721.06
2022-08-12T00:09:26.250Z,98729.00
2022-08-12T00:12:46.988Z,98732.81
2022-08-12T00:16:08.925Z,98734.47
2022-08-12T00:19:29.402Z,98732.31
2022-08-12T00:22:58.621Z,98735.56
2022-08-12T00:26:22.224Z,98726.72
2022-08-12T00:29:47.775Z,98734.75
2022-08-12T00:33:08.733Z,98732.06
2022-08-12T00:36:35.171Z,98732.38
2022-08-12T00:39:58.666Z,98728.06
2022-08-12T00:43:01.635Z,98724.03
2022-08-12T00:46:22.855Z,98721.56
2022-08-12T00:49:27.080Z,98721.13
2022-08-12T00:52:29.815Z,98716.00
2022-08-12T00:55:33.972Z,98720.91
2022-08-12T00:58:38.255Z,98724.31
2022-08-12T01:02:04.272Z,98721.50
2022-08-12T01:05:28.410Z,98715.25
2022-08-12T01:08:44.980Z,98716.50
2022-08-12T01:11:49.671Z,98719.25
2022-08-12T01:14:53.809Z,98716.41
2022-08-12T01:17:56.992Z,98716.19
2022-08-12T01:21:08.270Z,98714.28
2022-08-12T01:24:31.323Z,98723.97
2022-08-12T01:27:36.531Z,98706.47
2022-08-12T01:30:41.162Z,98714.31
2022-08-12T01:33:47.138Z,98710.16
2022-08-12T01:36:54.361Z,98708.13
2022-08-12T01:40:33.412Z,98707.28
2022-08-12T01:43:25.478Z,98706.41
2022-08-12T01:46:40.586Z,98705.56
2022-08-12T01:49:51.972Z,98707.66
2022-08-12T01:53:00.192Z,98701.59
2022-08-12T01:56:04.245Z,98693.47
2022-08-12T01:59:29.205Z,98693.63
2022-08-12T02:02:35.029Z,98688.50
2022-08-12T02:06:01.998Z,98688.75
2022-08-12T02:09:23.109Z,98692.63
2022-08-12T02:12:43.941Z,98697.91
2022-08-12T02:15:57.648Z,98691.38
2022-08-12T02:19:22.022Z,98702.31
2022-08-12T02:22:31.274Z,98700.69
2022-08-12T02:25:35.813Z,98701.44
2022-08-12T02:28:38.756Z,98696.13
2022-08-12T02:31:45.590Z,98687.16
2022-08-12T02:34:48.387Z,98691.94
2022-08-12T02:37:53.698Z,98693.28
2022-08-12T02:40:59.140Z,98693.28
2022-08-12T02:44:06.165Z,98694.25
2022-08-12T02:47:58.340Z,98686.44
2022-08-12T02:50:36.422Z,98681.47
2022-08-12T02:53:40.408Z,98688.47
2022-08-12T02:56:50.624Z,98686.88
2022-08-12T02:59:54.142Z,98686.06
2022-08-12T03:03:01.844Z,98685.97
2022-08-12T03:06:08.194Z,98687.31
2022-08-12T03:09:14.627Z,98683.13
2022-08-12T03:12:19.957Z,98687.72
2022-08-12T03:15:24.969Z,98682.09
2022-08-12T03:18:31.896Z,98682.47
2022-08-12T03:21:54.660Z,98686.03
2022-08-12T03:25:05.464Z,98685.97
2022-08-12T03:28:11.142Z,98692.44
2022-08-12T03:31:29.733Z,98697.94
2022-08-12T03:34:36.749Z,98687.63
2022-08-12T03:37:41.407Z,98689.06
2022-08-12T03:41:12.227Z,98695.47
2022-08-12T03:44:36.043Z,98691.84
2022-08-12T03:47:58.327Z,98691.78
2022-08-12T03:51:20.657Z,98687.34
2022-08-12T03:54:42.720Z,98693.56
2022-08-12T03:58:03.288Z,98691.81
2022-08-12T04:01:06.783Z,98686.16
2022-08-12T04:04:10.577Z,98690.78
2022-08-12T04:07:17.190Z,98689.81
2022-08-12T04:10:20.715Z,98694.53
2022-08-12T04:13:23.906Z,98697.56
2022-08-12T04:16:36.234Z,98696.22
2022-08-12T04:19:39.719Z,98691.22
2022-08-12T04:22:45.005Z,98693.69
2022-08-12T04:25:48.757Z,98689.69
2022-08-12T04:28:52.175Z,98693.25
2022-08-12T04:31:57.673Z,98694.84
2022-08-12T04:35:01.168Z,98695.00
2022-08-12T04:38:09.575Z,98686.44
2022-08-12T04:41:13.470Z,98703.00
2022-08-12T04:44:17.674Z,98702.13
2022-08-12T04:47:21.600Z,98701.41
2022-08-12T04:50:33.766Z,98695.97
2022-08-12T04:53:41.317Z,98696.19
2022-08-12T04:56:44.703Z,98695.63
2022-08-12T05:00:11.278Z,98710.44
2022-08-12T05:03:15.489Z,98698.38
2022-08-12T05:06:26.317Z,98703.03
2022-08-12T05:09:59.079Z,98699.66
2022-08-12T05:12:57.388Z,98710.69
2022-08-12T05:16:09.299Z,98719.13
2022-08-12T05:19:18.757Z,98710.53
2022-08-12T05:22:25.880Z,98715.44
2022-08-12T05:25:31.547Z,98713.06
2022-08-12T05:28:34.784Z,98720.09
2022-08-12T05:31:47.414Z,98715.19
2022-08-12T05:34:53.827Z,98722.13
2022-08-12T05:38:10.450Z,98721.97
2022-08-12T05:41:20.540Z,98732.09
2022-08-12T05:44:23.620Z,98737.47
2022-08-12T05:47:40.668Z,98736.81
2022-08-12T05:50:56.872Z,98741.31
2022-08-12T05:54:02.202Z,98755.63
2022-08-12T05:57:08.367Z,98755.38
2022-08-12T06:00:13.328Z,98753.16
2022-08-12T06:03:19.307Z,98757.38
2022-08-12T06:06:27.407Z,98752.03
2022-08-12T06:09:32.130Z,98751.31
2022-08-12T06:12:36.336Z,98752.19
2022-08-12T06:15:41.106Z,98751.47
2022-08-12T06:18:44.263Z,98753.16
2022-08-12T06:21:48.739Z,98760.50
2022-08-12T06:24:53.038Z,98754.78
2022-08-12T06:28:06.425Z,98760.88
2022-08-12T06:31:25.891Z,98761.75
2022-08-12T06:35:23.978Z,98758.81
2022-08-12T06:37:56.748Z,98761.84
2022-08-12T06:41:18.853Z,98759.97
2022-08-12T06:44:23.237Z,98758.50
2022-08-12T06:47:26.151Z,98754.97
2022-08-12T06:50:31.004Z,98757.09
2022-08-12T06:53:37.226Z,98754.03
2022-08-12T06:57:03.137Z,98755.69
2022-08-12T07:00:05.221Z,98757.75
2022-08-12T07:03:22.661Z,98753.03
2022-08-12T07:06:26.731Z,98750.66
2022-08-12T07:10:04.725Z,98758.69
2022-08-12T07:12:54.888Z,98760.31
2022-08-12T07:15:59.660Z,98755.59
2022-08-12T07:19:04.250Z,98758.00
2022-08-12T07:22:07.713Z,98752.84
2022-08-12T07:25:29.039Z,98757.22
2022-08-12T07:28:34.913Z,98749.31
2022-08-12T07:31:39.794Z,98758.44
2022-08-12T07:34:43.551Z,98745.28
2022-08-12T07:37:47.328Z,98754.41
2022-08-12T07:40:50.552Z,98744.03
2022-08-12T07:43:54.997Z,98744.78
2022-08-12T07:46:59.348Z,98749.13
2022-08-12T07:50:05.494Z,98738.72
2022-08-12T07:53:10.399Z,98745.03
2022-08-12T07:56:13.721Z,98749.75
2022-08-12T07:59:17.216Z,98740.13
2022-08-12T08:02:26.500Z,98733.34
2022-08-12T08:05:37.335Z,98738.06
2022-08-12T08:08:41.809Z,98740.38
2022-08-12T08:12:01.952Z,98731.81
2022-08-12T08:15:08.008Z,98730.13
2022-08-12T08:18:26.654Z,98727.22
2022-08-12T08:21:35.482Z,98729.06
2022-08-12T08:24:38.504Z,98728.78
2022-08-12T08:27:46.474Z,98739.47
2022-08-12T08:30:50.497Z,98726.81
2022-08-12T08:34:04.732Z,98737.00
2022-08-12T08:37:17.048Z,98737.69
2022-08-12T08:40:38.194Z,98737.22
2022-08-12T08:43:44.098Z,98733.50
2022-08-12T08:46:47.895Z,98731.78
2022-08-12T08:49:52.337Z,98724.34
2022-08-12T08:52:55.197Z,98726.50
2022-08-12T08:56:05.035Z,98723.53
2022-08-12T08:59:08.473Z,98718.75
2022-08-12T09:02:11.275Z,98731.03
2022-08-12T09:05:25.385Z,98732.50
2022-08-12T09:08:29.563Z,98726.06
2022-08-12T09:15:17.114Z,98717.66
2022-08-12T09:21:54.331Z,98714.28
2022-08-12T09:25:01.252Z,98724.44
2022-08-12T09:28:10.773Z,98711.09
2022-08-12T09:32:05.891Z,98719.69
2022-08-12T09:34:42.406Z,98708.91
2022-08-12T09:37:57.689Z,98712.44
2022-08-12T09:42:34.190Z,98711.63
2022-08-12T09:44:45.526Z,98703.56
2022-08-12T09:47:57.061Z,98692.34
2022-08-12T09:51:03.788Z,98686.56
2022-08-12T09:54:33.974Z,98679.94
2022-08-12T09:58:47.063Z,98672.75
2022-08-12T10:01:06.352Z,98675.41
2022-08-12T10:04:19.829Z,98670.22
2022-08-12T10:07:28.630Z,98660.59
2022-08-12T10:10:59.002Z,98655.06
2022-08-12T10:14:02.904Z,98664.47
2022-08-12T10:17:08.901Z,98658.75
2022-08-12T10:20:12.734Z,98654.13
2022-08-12T10:23:16.022Z,98655.69
2022-08-12T10:26:39.337Z,98655.00
2022-08-12T10:30:11.908Z,98652.25
2022-08-12T10:33:19.302Z,98638.06
2022-08-12T10:36:36.407Z,98634.88
2022-08-12T10:40:03.192Z,98635.31
2022-08-12T10:43:25.811Z,98641.22
2022-08-12T10:46:32.048Z,98635.88
2022-08-12T10:50:03.660Z,98627.56
2022-08-12T10:53:00.579Z,98631.19
2022-08-12T10:56:03.807Z,98630.31
2022-08-12T10:59:11.038Z,98630.84
2022-08-12T11:04:26.008Z,98618.25
2022-08-12T11:07:05.005Z,98622.25
2022-08-12T11:09:00.508Z,98618.50
2022-08-12T11:12:36.949Z,98607.81
2022-08-12T11:16:04.320Z,98613.41
2022-08-12T11:18:57.042Z,98607.25
2022-08-12T11:22:01.073Z,98605.19
2022-08-12T11:25:10.647Z,98598.25
2022-08-12T11:28:15.015Z,98596.03
2022-08-12T11:31:20.102Z,98589.13
2022-08-12T11:34:52.756Z,98580.50
2022-08-12T11:37:58.108Z,98596.25
2022-08-12T11:41:31.754Z,98589.50
2022-08-12T11:44:43.228Z,98595.00
2022-08-12T11:47:47.511Z,98591.00
2022-08-12T11:50:52.092Z,98589.25
2022-08-12T11:53:57.283Z,98579.50
2022-08-12T11:58:09.153Z,98580.75
2022-08-12T12:03:50.675Z,98578.25
2022-08-12T12:07:07.096Z,98581.16
2022-08-12T12:10:11.291Z,98566.22
2022-08-12T12:13:23.207Z,98565.50
2022-08-12T12:16:38.201Z,98564.88
2022-08-12T12:19:46.402Z,98567.56
2022-08-12T12:22:49.252Z,98560.66
2022-08-12T12:25:59.295Z,98565.00
2022-08-12T12:30:17.928Z,98561.28
2022-08-12T12:32:33.070Z,98558.09
2022-08-12T12:36:18.497Z,98563.16
2022-08-12T12:39:00.571Z,98554.44
2022-08-12T12:42:52.271Z,98554.13
2022-08-12T12:45:26.047Z,98555.84
2022-08-12T12:48:28.925Z,98553.84
2022-08-12T12:51:49.399Z,98553.22
2022-08-12T12:54:58.537Z,98551.88
2022-08-12T12:58:01.302Z,98549.72
2022-08-12T13:01:04.814Z,98548.53
2022-08-12T13:04:27.070Z,98530.75
2022-08-12T13:07:49.295Z,98536.47
2022-08-12T13:10:54.713Z,98538.91
2022-08-12T13:14:09.061Z,98532.34
2022-08-12T13:17:16.655Z,98535.13
2022-08-12T13:20:37.696Z,98523.47
2022-08-12T13:23:46.580Z,98514.44
2022-08-12T13:26:50.681Z,98513.28
2022-08-12T13:29:55.993Z,98503.28
2022-08-12T13:33:00.145Z,98494.31
2022-08-12T13:36:10.262Z,98499.75
2022-08-12T13:39:16.450Z,98484.84
2022-08-12T13:42:19.372Z,98494.56
2022-08-12T13:45:22.204Z,98491.41
2022-08-12T13:48:28.967Z,98490.72
2022-08-12T13:51:40.702Z,98485.69
2022-08-12T13:54:55.837Z,98486.25
2022-08-12T13:58:01.665Z,98493.03
2022-08-12T14:01:06.359Z,98494.19
2022-08-12T14:04:12.351Z,98490.47
2022-08-12T14:07:15.333Z,98506.28
2022-08-12T14:10:37.736Z,98499.41
2022-08-12T14:14:04.888Z,98503.09
2022-08-12T14:17:05.457Z,98501.03
2022-08-12T14:20:15.738Z,98493.00
2022-08-12T14:24:04.409Z,98489.44
2022-08-12T14:26:44.243Z,98489.53
2022-08-12T14:30:04.657Z,98481.44
2022-08-12T14:33:09.121Z,98480.63
2022-08-12T14:36:13.873Z,98477.03
2022-08-12T14:39:17.510Z,98474.50
2022-08-12T14:42:22.732Z,98466.19
2022-08-12T14:45:44.979Z,98457.19
2022-08-12T14:48:54.519Z,98460.06
2022-08-12T14:52:43.229Z,98455.88
2022-08-12T14:59:00.007Z,98454.16
2022-08-12T15:02:21.503Z,98458.00
2022-08-12T15:06:05.483Z,98447.38
2022-08-12T15:08:48.118Z,98452.22
2022-08-12T15:11:55.455Z,98449.34
2022-08-12T15:15:08.837Z,98451.28
2022-08-12T15:18:14.468Z,98448.81
2022-08-12T15:21:17.702Z,98451.03
2022-08-12T15:24:20.467Z,98452.25
2022-08-12T15:28:11.104Z,98453.47
2022-08-12T15:30:48.276Z,98447.41
2022-08-12T15:33:51.139Z,98448.16
2022-08-12T15:36:55.763Z,98446.50
2022-08-12T15:40:03.128Z,98447.53
2022-08-12T15:43:08.313Z,98458.19
2022-08-12T15:46:15.496Z,98457.78
2022-08-12T15:49:19.455Z,98452.06
2022-08-12T15:52:27.294Z,98453.63
2022-08-12T15:55:37.289Z,98454.97
2022-08-12T15:58:49.026Z,98441.53
2022-08-12T16:01:55.247Z,98443.28
2022-08-12T16:04:58.869Z,98429.50
2022-08-12T16:08:01.665Z,98429.47
2022-08-12T16:11:07.446Z,98427.41
2022-08-12T16:14:17.681Z,98439.25
2022-08-12T16:17:26.077Z,98434.81
2022-08-12T16:20:47.355Z,98439.66
2022-08-12T16:23:54.930Z,98430.91
2022-08-12T16:26:58.541Z,98431.88
2022-08-12T16:30:04.391Z,98440.69
2022-08-12T16:33:13.880Z,98448.00
2022-08-12T16:36:20.639Z,98437.84
2022-08-12T16:39:23.519Z,98440.22
2022-08-12T16:42:28.905Z,98431.91
2022-08-12T16:46:05.050Z,98433.91
2022-08-12T16:48:58.375Z,98434.94
2022-08-12T16:52:02.385Z,98444.66
2022-08-12T16:55:12.940Z,98450.72
2022-08-12T16:58:28.534Z,98440.25
2022-08-12T17:01:37.578Z,98431.53
2022-08-12T17:04:52.841Z,98435.84
2022-08-12T17:07:56.170Z,98423.41
2022-08-12T17:10:59.729Z,98426.91
2022-08-12T17:14:02.558Z,98426.44
2022-08-12T17:17:18.552Z,98426.00
2022-08-12T17:20:36.485Z,98417.41
2022-08-12T17:23:48.310Z,98428.88
2022-08-12T17:26:56.440Z,98415.75
2022-08-12T17:30:03.497Z,98418.03
2022-08-12T17:33:07.605Z,98415.56
2022-08-12T17:36:11.762Z,98416.63
2022-08-12T17:39:14.585Z,98421.97
2022-08-12T17:42:32.902Z,98422.59
2022-08-12T17:45:39.036Z,98427.19
2022-08-12T17:48:54.915Z,98427.06
2022-08-12T17:52:02.633Z,98429.81
2022-08-12T17:55:39.896Z,98439.81
2022-08-12T17:58:37.613Z,98431.97
2022-08-12T18:01:45.593Z,98435.38
2022-08-12T18:05:04.569Z,98432.06
2022-08-12T18:08:11.731Z,98433.97
2022-08-12T18:12:03.153Z,98433.84
2022-08-12T18:14:58.669Z,98434.50
2022-08-12T18:18:02.593Z,98438.75
2022-08-12T18:21:07.490Z,98447.63
2022-08-12T18:24:21.591Z,98441.88
2022-08-12T18:27:28.059Z,98439.97
2022-08-12T18:30:34.595Z,98445.25
2022-08-12T18:33:43.800Z,98449.09
2022-08-12T18:36:54.046Z,98443.44
2022-08-12T18:40:18.167Z,98452.44
2022-08-12T18:43:20.801Z,98447.50
2022-08-12T18:46:29.390Z,98452.91
2022-08-12T18:49:39.112Z,98451.56
2022-08-12T18:52:43.067Z,98453.44
2022-08-12T18:55:59.268Z,98450.44
2022-08-12T18:59:02.847Z,98460.91
2022-08-12T19:02:19.424Z,98465.44
2022-08-12T19:05:53.209Z,98465.25
2022-08-12T19:08:50.671Z,98470.47
2022-08-12T19:12:13.040Z,98476.16
2022-08-12T19:15:24.163Z,98479.78
2022-08-12T19:18:29.183Z,98483.44
2022-08-12T19:21:33.427Z,98493.56
2022-08-12T19:24:57.757Z,98505.53
2022-08-12T19:28:05.716Z,98504.63
2022-08-12T19:31:44.804Z,98507.69
2022-08-12T19:38:27.029Z,98509.72
2022-08-12T19:41:42.612Z,98509.31
2022-08-12T19:45:04.523Z,98519.59
2022-08-12T19:48:11.023Z,98522.78
2022-08-12T19:51:33.365Z,98512.47
2022-08-12T19:54:38.781Z,98520.03
2022-08-12T19:58:03.375Z,98529.69
2022-08-12T20:01:11.644Z,98535.69
2022-08-12T20:04:14.809Z,98532.88
2022-08-12T20:07:23.858Z,98532.09
2022-08-12T20:10:35.123Z,98531.81
2022-08-12T20:13:42.073Z,98529.06
2022-08-12T20:16:52.103Z,98530.25
2022-08-12T20:20:17.415Z,98523.94
2022-08-12T20:23:23.274Z,98527.94
2022-08-12T20:26:26.289Z,98527.97
2022-08-12T20:29:36.538Z,98529.56
2022-08-12T20:32:57.946Z,98527.97
2022-08-12T20:36:14.468Z,98533.94
2022-08-12T20:39:52.565Z,98529.97
2022-08-12T20:42:47.992Z,98538.31
2022-08-12T20:45:57.665Z,98536.75
2022-08-12T20:49:14.771Z,98542.28
2022-08-12T20:52:22.463Z,98537.13
2022-08-12T20:55:43.057Z,98542.28
2022-08-12T20:58:46.469Z,98537.53
2022-08-12T21:01:54.063Z,98539.47
2022-08-12T21:05:19.925Z,98538.28
2022-08-12T21:08:26.437Z,98542.22
2022-08-12T21:11:30.264Z,98543.78
2022-08-12T21:14:39.660Z,98552.47
2022-08-12T21:18:09.654Z,98547.72
2022-08-12T21:21:24.003Z,98540.09
2022-08-12T21:24:46.603Z,98546.81
2022-08-12T21:27:59.126Z,98548.41
2022-08-12T21:32:34.559Z,98546.31
2022-08-12T21:34:29.666Z,98543.19
2022-08-12T21:37:37.527Z,98547.47
2022-08-12T21:40:51.846Z,98544.28
2022-08-12T21:44:01.802Z,98544.56
2022-08-12T21:47:06.654Z,98548.09
2022-08-12T21:50:22.385Z,98554.47
2022-08-12T21:54:06.982Z,98552.44
2022-08-12T21:56:56.052Z,98563.91
2022-08-12T21:59:58.739Z,98562.22
2022-08-12T22:04:01.364Z,98564.94
2022-08-12T22:06:44.525Z,98561.72
2022-08-12T22:09:57.072Z,98557.72
2022-08-12T22:13:00.910Z,98565.13
2022-08-12T22:16:04.323Z,98566.63
2022-08-12T22:19:07.351Z,98557.91
2022-08-12T22:22:09.964Z,98564.63
2022-08-12T22:25:16.719Z,98565.03
2022-08-12T22:28:40.569Z,98565.66
2022-08-12T22:31:43.426Z,98564.06
2022-08-12T22:34:46.164Z,98568.81
2022-08-12T22:37:48.737Z,98580.41
2022-08-12T22:40:54.481Z,98579.78
2022-08-12T22:44:14.970Z,98578.94
2022-08-12T22:47:53.280Z,98567.44
2022-08-12T22:50:59.379Z,98566.75
2022-08-12T22:54:02.201Z,98572.69
2022-08-12T22:57:11.941Z,98570.66
2022-08-12T23:00:24.578Z,98576.44
2022-08-12T23:03:47.651Z,98568.91
2022-08-12T23:06:56.133Z,98576.03
2022-08-12T23:09:58.829Z,98562.06
2022-08-12T23:13:28.105Z,98565.66
2022-08-12T23:16:49.483Z,98561.69
2022-08-12T23:19:55.479Z,98561.66
2022-08-12T23:23:09.196Z,98565.63
2022-08-12T23:26:12.038Z,98561.16
2022-08-12T23:29:26.018Z,98556.59
2022-08-12T23:32:35.740Z,98558.19
2022-08-12T23:35:45.844Z,98557.28
2022-08-12T23:39:01.749Z,98552.50
2022-08-12T23:42:17.729Z,98562.25
2022-08-12T23:45:30.761Z,98554.47
2022-08-12T23:48:34.621Z,98548.06
2022-08-12T23:51:37.647Z,98551.56
2022-08-12T23:54:44.871Z,98542.06
2022-08-12T23:58:17.665Z,98548.81
